Time;durP1;ratioP1;P1;durP2;ratioP2;P2;SDS_P1;SDS_P2;PMS_P1;PMS_P2;Temp;Humidity;BMP_temperature;BMP_pressure;BME280_temperature;BME280_humidity;BME280_pressure;Samples;Min_cycle;Max_cycle;Signal;HPM_P1;HPM_P2
2021/11/27 00:01:35;;;;;;;18.63;7.63;;;5.00;87.70;;;;;;5102030;28;20199;-85
2021/11/27 00:04:02;;;;;;;12.77;5.97;;;5.10;87.90;;;;;;5084392;28;20506;-84
2021/11/27 00:06:28;;;;;;;10.25;5.45;;;5.10;88.00;;;;;;5085330;28;20976;-85
2021/11/27 00:08:54;;;;;;;10.77;6.15;;;5.30;88.10;;;;;;5102638;28;20191;-84
2021/11/27 00:11:20;;;;;;;14.82;6.50;;;5.40;88.00;;;;;;5102953;28;20179;-85
2021/11/27 00:13:46;;;;;;;9.40;5.75;;;5.40;88.00;;;;;;5066365;28;20210;-85
2021/11/27 00:16:12;;;;;;;9.00;4.77;;;5.50;88.10;;;;;;5081758;28;20263;-85
2021/11/27 00:18:38;;;;;;;7.55;4.40;;;5.50;88.20;;;;;;5080914;28;20172;-85
2021/11/27 00:21:09;;;;;;;7.90;4.22;;;5.40;88.10;;;;;;5098688;28;20204;-85
2021/11/27 00:23:36;;;;;;;6.07;3.83;;;5.40;88.20;;;;;;5097474;28;20176;-85
2021/11/27 00:26:05;;;;;;;7.15;4.30;;;5.40;88.30;;;;;;5097296;28;20210;-85
2021/11/27 00:28:30;;;;;;;9.63;4.53;;;5.30;88.20;;;;;;5079150;28;20635;-85
2021/11/27 00:30:59;;;;;;;11.33;6.20;;;5.30;88.30;;;;;;5079178;28;20195;-85
2021/11/27 00:33:26;;;;;;;12.38;5.88;;;5.40;88.90;;;;;;5078392;28;20481;-85
2021/11/27 00:35:52;;;;;;;13.23;7.22;;;5.60;88.20;;;;;;5096639;28;20199;-85
2021/11/27 00:38:18;;;;;;;15.93;8.02;;;5.80;88.00;;;;;;5096357;28;20188;-85
2021/11/27 00:40:45;;;;;;;48.03;10.03;;;5.60;87.70;;;;;;5095906;28;20309;-86
2021/11/27 00:43:13;;;;;;;24.70;9.45;;;5.60;87.50;;;;;;5077231;28;20541;-85
2021/11/27 00:45:41;;;;;;;27.35;9.45;;;5.70;87.50;;;;;;5077658;28;20207;-85
2021/11/27 00:48:08;;;;;;;13.63;7.82;;;5.70;87.50;;;;;;5077393;28;20183;-85
2021/11/27 00:50:45;;;;;;;20.75;9.00;;;5.90;87.50;;;;;;5077778;28;20708;-85
2021/11/27 00:53:11;;;;;;;24.73;9.05;;;5.90;87.30;;;;;;5058406;28;20610;-85
2021/11/27 00:55:37;;;;;;;23.90;9.15;;;5.90;87.30;;;;;;5077351;28;20192;-85
2021/11/27 00:58:03;;;;;;;26.43;9.97;;;6.10;87.10;;;;;;5095400;28;20251;-86
2021/11/27 01:00:32;;;;;;;18.15;8.23;;;6.10;87.40;;;;;;5095374;28;20905;-85
2021/11/27 01:03:01;;;;;;;23.58;9.13;;;5.90;86.50;;;;;;5076478;28;20205;-85
2021/11/27 01:05:27;;;;;;;19.85;8.18;;;5.90;86.60;;;;;;5077134;28;20601;-85
2021/11/27 01:07:54;;;;;;;16.65;8.60;;;6.00;86.50;;;;;;5095091;28;20176;-84
2021/11/27 01:10:23;;;;;;;17.50;9.80;;;6.20;86.40;;;;;;5077773;28;20263;-84
2021/11/27 01:12:50;;;;;;;23.60;8.57;;;6.30;85.80;;;;;;5076977;28;20180;-85
2021/11/27 01:15:22;;;;;;;18.17;7.40;;;6.20;85.10;;;;;;5076607;28;20207;-85
2021/11/27 01:17:48;;;;;;;23.80;7.72;;;6.10;84.70;;;;;;5078599;28;20184;-86
2021/11/27 01:20:17;;;;;;;18.67;7.95;;;6.10;84.70;;;;;;5079212;28;20176;-86
2021/11/27 01:22:43;;;;;;;16.38;8.85;;;5.90;84.80;;;;;;5080350;28;20199;-86
2021/11/27 01:25:09;;;;;;;12.90;7.37;;;5.90;85.10;;;;;;5080716;28;20195;-85
2021/11/27 01:27:35;;;;;;;15.57;8.50;;;6.00;85.30;;;;;;5082389;28;20172;-85
2021/11/27 01:30:05;;;;;;;20.38;8.35;;;6.00;85.30;;;;;;5098095;28;20249;-86
2021/11/27 01:32:31;;;;;;;23.10;8.05;;;6.00;85.20;;;;;;5079848;28;20202;-86
2021/11/27 01:34:57;;;;;;;20.33;7.60;;;5.90;85.00;;;;;;5097546;28;20204;-87
2021/11/27 01:37:22;;;;;;;30.93;8.77;;;5.90;85.00;;;;;;5083883;28;20183;-86
2021/11/27 01:39:48;;;;;;;19.23;8.80;;;5.80;85.90;;;;;;5089676;28;20259;-86
2021/11/27 01:42:14;;;;;;;23.87;8.63;;;5.90;85.10;;;;;;5092581;28;20203;-86
2021/11/27 01:44:41;;;;;;;23.43;9.07;;;5.80;85.00;;;;;;5087959;28;20211;-87
2021/11/27 01:47:07;;;;;;;18.10;7.63;;;5.80;85.00;;;;;;5081363;28;20441;-87
2021/11/27 01:49:32;;;;;;;18.50;7.93;;;5.80;85.00;;;;;;5077830;28;20183;-86
2021/11/27 01:51:58;;;;;;;19.63;6.57;;;5.60;84.60;;;;;;5095650;28;20195;-86
2021/11/27 01:54:25;;;;;;;14.70;7.50;;;5.70;84.70;;;;;;5077345;28;20461;-87
2021/11/27 01:56:57;;;;;;;18.10;7.55;;;5.70;84.90;;;;;;5096355;28;20274;-87
2021/11/27 01:59:25;;;;;;;22.65;9.30;;;5.70;85.10;;;;;;5078859;28;20176;-86
2021/11/27 02:01:52;;;;;;;21.73;8.70;;;5.70;84.90;;;;;;5078314;28;20215;-86
2021/11/27 02:04:18;;;;;;;13.50;7.93;;;5.40;84.90;;;;;;5099774;28;20208;-87
2021/11/27 02:06:45;;;;;;;18.25;9.07;;;5.40;84.80;;;;;;5104827;28;20180;-86
2021/11/27 02:09:25;;;;;;;17.05;8.55;;;5.20;84.80;;;;;;5095876;28;20371;-86
2021/11/27 02:11:52;;;;;;;20.83;8.65;;;5.30;84.90;;;;;;5103152;28;20171;-86
2021/11/27 02:14:18;;;;;;;19.00;7.97;;;5.20;84.70;;;;;;5090528;28;20207;-86
2021/11/27 02:16:45;;;;;;;15.20;8.77;;;5.30;84.90;;;;;;5079394;28;20557;-86
2021/11/27 02:19:11;;;;;;;18.98;7.95;;;5.30;84.80;;;;;;5065060;28;20423;-86
2021/11/27 02:21:37;;;;;;;18.10;8.85;;;5.10;84.80;;;;;;5101945;28;20226;-86
2021/11/27 02:24:03;;;;;;;17.95;8.90;;;5.20;85.00;;;;;;5093491;28;20192;-86
2021/11/27 02:26:34;;;;;;;15.80;8.30;;;5.10;85.30;;;;;;5093771;28;20217;-86
2021/11/27 02:29:11;;;;;;;30.73;10.45;;;5.20;85.40;;;;;;5082438;28;20406;-86
2021/11/27 02:31:37;;;;;;;17.55;8.68;;;5.20;85.10;;;;;;5080830;28;20655;-86
2021/11/27 02:34:04;;;;;;;17.13;8.02;;;5.00;84.80;;;;;;5080613;28;20203;-86
2021/11/27 02:36:29;;;;;;;22.95;8.32;;;5.10;85.00;;;;;;5063885;28;20183;-87
2021/11/27 02:38:57;;;;;;;13.03;7.27;;;5.20;85.00;;;;;;5080437;28;20176;-87
2021/11/27 02:41:23;;;;;;;18.75;8.05;;;5.10;84.80;;;;;;5080271;28;20436;-87
2021/11/27 02:43:49;;;;;;;15.38;8.48;;;5.10;84.90;;;;;;5098450;28;20245;-86
2021/11/27 02:46:15;;;;;;;18.17;8.00;;;5.10;84.90;;;;;;5098674;28;20168;-87
2021/11/27 02:48:41;;;;;;;16.47;8.93;;;5.10;85.00;;;;;;5081584;28;20190;-87
2021/11/27 02:51:07;;;;;;;13.50;8.37;;;5.00;85.00;;;;;;5091091;28;20406;-86
2021/11/27 02:53:33;;;;;;;10.90;7.50;;;5.00;85.00;;;;;;5100877;28;20418;-86
2021/11/27 02:55:59;;;;;;;9.00;6.97;;;5.00;85.10;;;;;;5099476;28;20425;-85
2021/11/27 02:58:25;;;;;;;16.73;8.00;;;4.80;85.20;;;;;;5096725;28;20456;-85
2021/11/27 03:00:53;;;;;;;17.33;8.30;;;4.60;85.40;;;;;;5100951;28;20179;-87
2021/11/27 03:03:19;;;;;;;15.90;8.88;;;4.70;85.80;;;;;;5097564;28;20446;-87
2021/11/27 03:05:45;;;;;;;12.13;8.00;;;4.60;85.80;;;;;;5079585;28;20179;-86
2021/11/27 03:08:10;;;;;;;15.03;7.70;;;4.70;86.00;;;;;;5079008;28;20567;-86
2021/11/27 03:10:36;;;;;;;15.33;7.93;;;4.60;85.90;;;;;;5079853;28;20434;-87
2021/11/27 03:13:02;;;;;;;12.77;6.43;;;4.80;86.00;;;;;;5079423;28;20202;-86
2021/11/27 03:15:29;;;;;;;10.38;6.53;;;4.60;85.90;;;;;;5097201;28;20476;-87
2021/11/27 03:17:55;;;;;;;17.00;6.90;;;4.60;86.00;;;;;;5079323;28;20183;-86
2021/11/27 03:20:21;;;;;;;12.10;7.43;;;4.60;86.20;;;;;;5061685;28;20188;-86
2021/11/27 03:22:48;;;;;;;8.53;5.97;;;4.60;86.10;;;;;;5097079;28;20234;-86
2021/11/27 03:25:15;;;;;;;13.40;6.35;;;4.60;86.10;;;;;;5078521;28;20434;-86
2021/11/27 03:27:41;;;;;;;14.98;7.38;;;4.40;86.20;;;;;;5078965;28;20176;-85
2021/11/27 03:30:12;;;;;;;22.50;6.80;;;4.50;86.40;;;;;;5078554;28;20171;-85
2021/11/27 03:32:38;;;;;;;9.70;6.38;;;4.50;86.20;;;;;;5078664;28;20176;-86
2021/11/27 03:35:05;;;;;;;16.43;6.60;;;4.50;86.20;;;;;;5091236;28;20197;-86
2021/11/27 03:37:31;;;;;;;14.57;6.30;;;4.30;86.30;;;;;;5041909;28;20435;-86
2021/11/27 03:39:56;;;;;;;16.60;6.87;;;4.30;86.40;;;;;;5091196;28;20575;-86
2021/11/27 03:42:22;;;;;;;15.23;7.23;;;4.30;86.40;;;;;;5078757;28;20461;-86
2021/11/27 03:44:49;;;;;;;11.90;6.60;;;4.20;86.40;;;;;;5078367;28;20433;-86
2021/11/27 03:47:16;;;;;;;29.90;6.60;;;4.20;86.60;;;;;;5096540;28;20468;-86
2021/11/27 03:49:41;;;;;;;15.95;6.97;;;4.20;86.60;;;;;;5096773;28;20180;-86
2021/11/27 03:52:08;;;;;;;14.77;6.57;;;4.50;86.50;;;;;;5078589;28;20180;-86
2021/11/27 03:54:34;;;;;;;17.55;6.50;;;4.30;86.20;;;;;;5077971;28;21017;-86
2021/11/27 03:57:00;;;;;;;15.95;6.90;;;4.30;86.20;;;;;;5078345;28;20180;-86
2021/11/27 03:59:27;;;;;;;10.43;5.47;;;4.20;86.10;;;;;;5078369;28;20183;-86
2021/11/27 04:01:54;;;;;;;15.85;7.13;;;4.30;86.20;;;;;;5078341;28;20603;-86
2021/11/27 04:04:21;;;;;;;19.08;7.20;;;4.30;86.30;;;;;;5077861;28;20259;-86
2021/11/27 04:06:47;;;;;;;11.95;7.03;;;4.10;86.20;;;;;;5077868;28;20204;-85
2021/11/27 04:09:13;;;;;;;13.35;6.80;;;4.10;86.40;;;;;;5095944;28;20199;-86
2021/11/27 04:11:40;;;;;;;12.30;5.22;;;4.00;86.40;;;;;;5077830;28;20470;-86
2021/11/27 04:14:06;;;;;;;11.40;6.57;;;4.00;86.50;;;;;;5077433;28;20212;-86
2021/11/27 04:16:33;;;;;;;11.68;5.75;;;4.20;86.50;;;;;;5077870;28;20168;-85
2021/11/27 04:18:59;;;;;;;17.13;6.20;;;4.30;86.30;;;;;;5095808;28;20210;-86
2021/11/27 04:21:25;;;;;;;15.45;6.28;;;4.30;86.20;;;;;;5078196;28;20191;-86
2021/11/27 04:23:51;;;;;;;12.95;6.20;;;4.20;86.10;;;;;;5095793;28;20204;-86
2021/11/27 04:26:19;;;;;;;8.57;5.90;;;4.10;86.10;;;;;;5078004;28;20172;-86
2021/11/27 04:28:45;;;;;;;19.83;7.10;;;4.00;86.10;;;;;;5096116;28;20178;-86
2021/11/27 04:31:11;;;;;;;18.15;6.90;;;3.90;86.40;;;;;;5078377;28;20172;-86
2021/11/27 04:33:37;;;;;;;21.17;6.90;;;3.90;86.50;;;;;;5077770;28;20172;-87
2021/11/27 04:36:04;;;;;;;16.25;7.72;;;4.20;86.50;;;;;;5086196;28;20176;-86
2021/11/27 04:38:31;;;;;;;11.45;6.32;;;4.30;86.20;;;;;;5078067;28;20176;-86
2021/11/27 04:40:57;;;;;;;12.48;7.18;;;4.30;85.30;;;;;;5096136;28;20184;-86
2021/11/27 04:43:23;;;;;;;25.60;7.72;;;4.40;84.80;;;;;;5077154;28;20202;-86
2021/11/27 04:45:49;;;;;;;15.75;6.35;;;4.40;84.30;;;;;;5095679;28;20259;-86
2021/11/27 04:48:16;;;;;;;19.77;8.40;;;4.30;84.00;;;;;;5076952;28;20172;-86
2021/11/27 04:50:42;;;;;;;14.55;7.18;;;4.20;83.80;;;;;;5077404;28;20187;-86
2021/11/27 04:53:09;;;;;;;19.17;7.15;;;4.30;83.80;;;;;;5095189;28;20176;-86
2021/11/27 04:55:35;;;;;;;15.52;6.88;;;4.30;83.80;;;;;;5077564;28;20204;-86
2021/11/27 04:58:01;;;;;;;20.63;7.57;;;4.30;83.70;;;;;;5077837;28;20210;-85
2021/11/27 05:00:49;;;;;;;26.17;7.90;;;4.30;83.70;;;;;;5077675;28;20836;-85
2021/11/27 05:03:15;;;;;;;37.00;9.00;;;4.30;83.60;;;;;;5080571;28;20222;-85
2021/11/27 05:05:41;;;;;;;14.63;7.03;;;4.30;83.50;;;;;;5078632;28;20253;-86
2021/11/27 05:08:07;;;;;;;11.30;6.90;;;4.30;83.70;;;;;;5081512;28;20172;-86
2021/11/27 05:10:33;;;;;;;12.20;7.13;;;4.20;83.60;;;;;;5077817;28;20925;-86
2021/11/27 05:12:59;;;;;;;12.90;6.72;;;4.20;83.70;;;;;;5077185;28;20422;-86
2021/11/27 05:15:25;;;;;;;14.93;6.63;;;4.20;83.60;;;;;;5071512;28;20215;-86
2021/11/27 05:17:51;;;;;;;13.63;8.00;;;4.30;83.50;;;;;;5078412;28;20248;-87
2021/11/27 05:20:17;;;;;;;25.13;8.23;;;4.20;83.40;;;;;;5077629;28;20309;-86
2021/11/27 05:22:42;;;;;;;20.73;8.13;;;4.10;83.50;;;;;;5097421;28;20974;-87
2021/11/27 05:25:09;;;;;;;19.90;8.57;;;4.10;83.50;;;;;;5096574;28;20434;-86
2021/11/27 05:27:36;;;;;;;23.90;8.32;;;4.10;83.70;;;;;;5081798;28;20619;-86
2021/11/27 05:30:05;;;;;;;17.23;8.77;;;4.10;83.70;;;;;;5077069;28;20654;-86
2021/11/27 05:35:00;;;;;;;22.95;9.30;;;3.80;83.70;;;;;;5094972;28;20203;-87
2021/11/27 05:37:28;;;;;;;27.92;9.25;;;3.70;84.10;;;;;;5076659;28;20573;-87
2021/11/27 05:39:54;;;;;;;19.40;9.30;;;3.80;84.30;;;;;;5094994;28;20538;-87
2021/11/27 05:42:20;;;;;;;17.42;10.50;;;3.90;84.20;;;;;;5096847;28;20192;-86
2021/11/27 05:44:48;;;;;;;22.05;9.77;;;3.80;84.30;;;;;;5077858;28;20204;-86
2021/11/27 05:47:15;;;;;;;32.20;11.13;;;3.70;84.50;;;;;;5061646;28;20199;-86
2021/11/27 05:49:41;;;;;;;21.98;10.20;;;3.70;84.60;;;;;;5096033;28;20179;-86
2021/11/27 05:52:07;;;;;;;24.37;10.20;;;3.90;84.60;;;;;;5098022;28;20179;-86
2021/11/27 05:54:34;;;;;;;24.50;9.45;;;3.90;84.10;;;;;;5078083;28;20438;-86
2021/11/27 05:57:01;;;;;;;27.38;9.60;;;3.90;83.80;;;;;;5080066;28;20187;-86
2021/11/27 05:59:27;;;;;;;20.58;8.80;;;3.90;83.70;;;;;;5075385;28;20190;-85
2021/11/27 06:01:53;;;;;;;25.70;10.30;;;3.70;83.70;;;;;;5070223;28;20705;-85
2021/11/27 06:04:18;;;;;;;21.20;9.57;;;3.80;83.70;;;;;;5077867;28;20291;-86
2021/11/27 06:06:44;;;;;;;22.90;9.47;;;3.90;83.50;;;;;;5077557;28;20429;-86
2021/11/27 06:09:10;;;;;;;19.17;8.67;;;3.70;83.40;;;;;;5075926;28;20176;-86
2021/11/27 06:11:36;;;;;;;26.00;9.63;;;3.60;83.60;;;;;;5094090;28;20175;-85
2021/11/27 06:14:01;;;;;;;28.17;10.60;;;3.40;84.00;;;;;;5055615;28;20302;-85
2021/11/27 06:16:27;;;;;;;20.90;11.27;;;3.20;84.50;;;;;;5075321;28;20403;-85
2021/11/27 06:18:53;;;;;;;23.93;10.33;;;3.10;85.00;;;;;;5078653;28;20553;-87
2021/11/27 06:21:20;;;;;;;26.90;11.17;;;3.10;85.60;;;;;;5083065;28;20183;-87
2021/11/27 06:23:51;;;;;;;27.17;11.35;;;3.10;85.80;;;;;;5077135;28;20587;-87
2021/11/27 06:26:17;;;;;;;20.67;10.90;;;3.30;86.10;;;;;;5076712;28;20172;-87
2021/11/27 06:28:43;;;;;;;30.48;12.35;;;3.60;85.70;;;;;;5076659;28;20172;-87
2021/11/27 06:31:09;;;;;;;19.10;11.10;;;3.60;84.80;;;;;;5095567;28;20198;-86
2021/11/27 06:33:35;;;;;;;22.40;11.47;;;3.50;84.30;;;;;;5095893;28;20493;-86
2021/11/27 06:36:01;;;;;;;21.10;9.90;;;3.50;84.10;;;;;;5068638;28;20199;-87
2021/11/27 06:38:27;;;;;;;24.02;11.70;;;3.50;84.00;;;;;;5095981;28;20406;-87
2021/11/27 06:40:53;;;;;;;22.73;9.53;;;3.50;83.80;;;;;;5077227;28;20188;-86
2021/11/27 06:43:19;;;;;;;30.45;11.68;;;3.40;83.70;;;;;;5077115;28;20675;-87
2021/11/27 06:45:45;;;;;;;20.17;11.33;;;3.30;84.00;;;;;;5094423;28;20191;-86
2021/11/27 06:48:11;;;;;;;24.27;11.63;;;3.10;84.50;;;;;;5077652;28;20425;-86
2021/11/27 06:50:37;;;;;;;28.33;11.90;;;3.00;84.80;;;;;;5077066;28;20414;-86
2021/11/27 06:53:04;;;;;;;25.58;11.30;;;3.40;85.00;;;;;;5077557;28;20651;-86
2021/11/27 06:55:30;;;;;;;22.98;12.45;;;3.30;84.50;;;;;;5080092;28;20199;-87
2021/11/27 06:57:56;;;;;;;31.35;13.27;;;3.30;84.20;;;;;;5076633;28;20184;-86
2021/11/27 07:00:22;;;;;;;21.07;12.53;;;3.40;84.00;;;;;;5094474;28;20180;-86
2021/11/27 07:02:48;;;;;;;27.70;12.27;;;3.40;83.90;;;;;;5080016;28;20519;-86
2021/11/27 07:05:14;;;;;;;25.63;12.73;;;3.40;83.90;;;;;;5102350;28;20192;-86
2021/11/27 07:07:39;;;;;;;22.65;11.85;;;3.30;84.10;;;;;;5098024;28;20493;-86
2021/11/27 07:10:07;;;;;;;24.10;11.93;;;3.10;84.40;;;;;;5069268;28;20260;-87
2021/11/27 07:12:32;;;;;;;27.85;11.02;;;3.30;84.60;;;;;;5078807;28;20428;-86
2021/11/27 07:15:02;;;;;;;21.83;11.40;;;3.50;84.50;;;;;;5080590;28;20207;-79
2021/11/27 07:17:28;;;;;;;38.47;11.48;;;3.40;84.20;;;;;;5098747;28;20170;-78
2021/11/27 07:19:53;;;;;;;31.88;11.77;;;3.20;84.30;;;;;;5099092;28;20172;-79
2021/11/27 07:22:19;;;;;;;26.57;11.70;;;3.10;84.60;;;;;;5064755;28;20204;-79
2021/11/27 07:24:45;;;;;;;33.27;15.13;;;3.00;85.00;;;;;;5065033;28;20234;-80
2021/11/27 07:27:11;;;;;;;39.53;16.67;;;3.20;85.10;;;;;;5098021;28;20782;-78
2021/11/27 07:29:41;;;;;;;35.40;13.47;;;3.30;84.80;;;;;;5079646;28;20176;-79
2021/11/27 07:32:07;;;;;;;34.33;13.63;;;3.20;84.50;;;;;;5079171;28;20180;-80
2021/11/27 07:34:33;;;;;;;31.10;15.00;;;3.20;85.20;;;;;;5081040;28;20196;-79
2021/11/27 07:36:59;;;;;;;34.83;14.93;;;2.90;84.70;;;;;;5109495;28;20197;-79
2021/11/27 07:39:25;;;;;;;32.00;14.00;;;2.90;85.80;;;;;;5095629;28;20196;-79
2021/11/27 07:41:51;;;;;;;39.53;15.20;;;3.00;85.30;;;;;;5092987;28;20556;-80
2021/11/27 07:44:17;;;;;;;27.67;13.57;;;3.10;85.10;;;;;;5098157;28;20184;-79
2021/11/27 07:46:47;;;;;;;49.97;15.93;;;3.10;85.00;;;;;;5080906;28;20419;-79
2021/11/27 07:49:13;;;;;;;33.30;15.10;;;3.20;84.80;;;;;;5079420;28;20422;-80
2021/11/27 07:51:38;;;;;;;65.28;28.58;;;3.30;84.80;;;;;;5096885;28;20176;-80
2021/11/27 07:54:04;;;;;;;90.03;34.03;;;3.40;84.50;;;;;;5080831;28;20196;-79
2021/11/27 07:56:30;;;;;;;63.10;25.00;;;3.40;84.10;;;;;;5103249;28;20176;-79
2021/11/27 07:58:56;;;;;;;59.57;22.90;;;3.40;83.80;;;;;;5101131;28;20424;-78
2021/11/27 08:01:21;;;;;;;57.67;20.30;;;3.50;83.60;;;;;;5101363;28;20410;-79
2021/11/27 08:03:47;;;;;;;37.87;18.40;;;3.50;83.40;;;;;;5084970;28;20207;-79
2021/11/27 08:06:13;;;;;;;41.63;15.17;;;3.40;83.50;;;;;;5105556;28;20250;-79
2021/11/27 08:08:39;;;;;;;35.13;14.97;;;3.40;83.70;;;;;;5098655;28;20179;-79
2021/11/27 08:11:05;;;;;;;40.33;16.95;;;3.60;83.50;;;;;;5078828;28;20194;-80
2021/11/27 08:13:32;;;;;;;41.45;22.50;;;3.60;83.10;;;;;;5078480;28;20673;-80
2021/11/27 08:15:58;;;;;;;43.05;19.30;;;3.70;82.80;;;;;;5079660;28;20199;-79
2021/11/27 08:18:24;;;;;;;37.87;15.13;;;3.70;82.50;;;;;;5091751;28;20179;-81
2021/11/27 08:20:50;;;;;;;37.63;14.15;;;3.70;82.40;;;;;;5116506;28;20422;-80
2021/11/27 08:23:18;;;;;;;38.43;13.80;;;3.70;82.50;;;;;;5113872;28;20230;-81
2021/11/27 08:25:45;;;;;;;29.50;13.07;;;3.70;82.80;;;;;;5105634;28;20497;-81
2021/11/27 08:28:11;;;;;;;27.40;11.82;;;3.70;82.90;;;;;;5082594;28;20183;-81
2021/11/27 08:30:37;;;;;;;34.33;14.97;;;3.80;83.10;;;;;;5083376;28;20177;-80
2021/11/27 08:33:03;;;;;;;27.57;15.13;;;3.80;83.20;;;;;;5086922;28;20418;-80
2021/11/27 08:35:29;;;;;;;33.22;14.23;;;3.90;83.10;;;;;;5081025;28;20442;-81
2021/11/27 08:37:55;;;;;;;37.07;13.63;;;3.80;82.50;;;;;;5071132;28;20680;-80
2021/11/27 08:40:20;;;;;;;35.97;14.03;;;3.60;82.30;;;;;;5087210;28;20411;-79
2021/11/27 08:42:46;;;;;;;28.07;14.47;;;3.70;82.60;;;;;;5090914;28;20192;-80
2021/11/27 08:45:13;;;;;;;26.33;13.00;;;3.80;82.80;;;;;;5072757;28;20453;-79
2021/11/27 08:47:39;;;;;;;21.70;12.45;;;3.80;83.10;;;;;;5062642;28;20230;-79
2021/11/27 08:50:07;;;;;;;34.58;12.55;;;3.70;83.60;;;;;;5091665;28;20255;-79
2021/11/27 08:52:33;;;;;;;34.85;12.73;;;3.90;84.10;;;;;;5073152;28;20180;-79
2021/11/27 08:54:58;;;;;;;26.93;13.00;;;4.10;83.80;;;;;;5082015;28;20204;-79
2021/11/27 08:57:24;;;;;;;28.53;12.97;;;4.20;83.10;;;;;;5080973;28;20474;-79
2021/11/27 08:59:51;;;;;;;24.77;11.75;;;4.20;82.50;;;;;;5080902;28;20563;-79
2021/11/27 09:02:17;;;;;;;32.33;13.75;;;4.20;82.20;;;;;;5079627;28;20218;-80
2021/11/27 09:04:43;;;;;;;37.35;12.60;;;4.10;82.40;;;;;;5062766;28;20196;-81
2021/11/27 09:07:09;;;;;;;25.83;13.50;;;4.40;82.60;;;;;;5061959;28;20234;-85
2021/11/27 09:09:35;;;;;;;31.70;14.43;;;4.50;82.30;;;;;;5062750;28;20419;-85
2021/11/27 09:12:04;;;;;;;34.38;13.60;;;4.60;82.10;;;;;;5062939;28;20823;-84
2021/11/27 09:14:29;;;;;;;34.28;13.10;;;4.60;82.00;;;;;;5083258;28;20319;-84
2021/11/27 09:16:55;;;;;;;29.10;12.80;;;4.40;82.00;;;;;;5087912;28;20176;-84
2021/11/27 09:19:21;;;;;;;23.33;13.00;;;4.50;82.50;;;;;;5110876;28;20414;-85
2021/11/27 09:21:49;;;;;;;31.57;12.00;;;4.60;82.50;;;;;;5113159;28;20179;-84
2021/11/27 09:24:14;;;;;;;24.17;12.20;;;4.70;82.30;;;;;;5112921;28;20426;-84
2021/11/27 09:26:40;;;;;;;39.97;11.80;;;4.90;82.40;;;;;;5097578;28;20198;-85
2021/11/27 09:29:08;;;;;;;24.40;12.37;;;5.00;82.50;;;;;;5096373;28;20192;-83
2021/11/27 09:31:40;;;;;;;32.88;13.07;;;5.30;82.10;;;;;;5077652;28;20183;-84
2021/11/27 09:34:07;;;;;;;44.83;13.82;;;5.20;81.40;;;;;;5082983;28;20199;-83
2021/11/27 09:36:34;;;;;;;32.58;12.70;;;5.10;81.60;;;;;;5103386;28;20172;-83
2021/11/27 09:39:00;;;;;;;35.15;12.50;;;5.20;81.40;;;;;;5082963;28;20184;-83
2021/11/27 09:41:30;;;;;;;29.10;12.82;;;5.00;81.20;;;;;;5081201;28;20239;-81
2021/11/27 09:44:06;;;;;;;30.27;12.02;;;5.10;81.50;;;;;;5099029;28;20621;-83
2021/11/27 09:46:34;;;;;;;24.45;11.30;;;5.20;81.00;;;;;;5081297;28;20224;-83
2021/11/27 09:49:07;;;;;;;34.00;11.75;;;5.40;80.90;;;;;;5099705;28;20180;-81
2021/11/27 09:51:35;;;;;;;23.40;13.20;;;5.60;80.90;;;;;;5081023;28;20172;-84
2021/11/27 09:54:03;;;;;;;31.20;12.18;;;5.80;80.40;;;;;;5079146;28;20242;-82
2021/11/27 09:56:29;;;;;;;21.95;11.85;;;5.80;80.00;;;;;;5097132;28;20176;-82
2021/11/27 09:58:56;;;;;;;24.33;10.27;;;5.90;79.10;;;;;;5062162;28;20186;-82
2021/11/27 10:01:32;;;;;;;25.80;10.95;;;6.00;79.70;;;;;;5097872;28;20221;-82
2021/11/27 10:04:02;;;;;;;27.17;11.15;;;6.10;80.10;;;;;;5097646;28;20203;-82
2021/11/27 10:06:34;;;;;;;23.42;11.13;;;6.00;78.60;;;;;;5082582;28;20247;-82
2021/11/27 10:09:02;;;;;;;22.95;10.88;;;6.20;78.40;;;;;;5100988;28;20182;-82
2021/11/27 10:11:28;;;;;;;24.83;11.25;;;6.40;77.90;;;;;;5081890;28;20179;-82
2021/11/27 10:13:54;;;;;;;25.47;11.63;;;6.40;77.90;;;;;;5100102;28;20191;-82
2021/11/27 10:16:20;;;;;;;22.43;10.83;;;6.50;78.20;;;;;;5100151;28;20519;-82
2021/11/27 10:19:02;;;;;;;22.35;8.18;;;6.60;78.10;;;;;;5082164;28;20424;-82
2021/11/27 10:21:28;;;;;;;20.73;8.63;;;6.60;78.30;;;;;;5100889;28;20251;-82
2021/11/27 10:23:54;;;;;;;15.67;7.70;;;6.70;78.10;;;;;;5082413;28;20250;-82
2021/11/27 10:26:37;;;;;;;14.00;7.23;;;6.90;77.20;;;;;;5100065;28;20464;-81
2021/11/27 10:29:32;;;;;;;18.52;7.57;;;6.70;76.60;;;;;;5081543;28;20168;-81
2021/11/27 10:32:13;;;;;;;27.45;6.43;;;6.70;77.00;;;;;;5099654;28;20165;-82
2021/11/27 10:34:54;;;;;;;15.50;6.63;;;6.80;77.00;;;;;;5099795;28;20203;-81
2021/11/27 10:37:54;;;;;;;18.13;7.20;;;6.80;76.30;;;;;;5081333;28;20180;-81
2021/11/27 10:40:28;;;;;;;11.20;5.90;;;6.60;76.40;;;;;;5081497;28;20194;-82
2021/11/27 10:42:58;;;;;;;20.65;8.43;;;6.80;76.80;;;;;;5080993;28;20203;-83
2021/11/27 10:45:28;;;;;;;21.48;8.35;;;6.90;76.50;;;;;;5099082;28;20191;-82
2021/11/27 10:48:09;;;;;;;13.82;6.00;;;7.10;76.30;;;;;;5084215;28;20203;-82
2021/11/27 10:50:43;;;;;;;9.85;5.65;;;7.30;76.30;;;;;;5087060;28;20176;-82
2021/11/27 10:53:14;;;;;;;20.75;6.50;;;7.30;76.20;;;;;;5082300;28;20175;-82
2021/11/27 10:55:40;;;;;;;15.98;5.57;;;7.50;76.30;;;;;;5089275;28;20226;-82
2021/11/27 10:58:08;;;;;;;7.72;4.70;;;7.40;75.40;;;;;;5093466;28;20210;-83
2021/11/27 11:00:43;;;;;;;8.63;5.15;;;7.30;75.00;;;;;;5083714;28;20176;-81
2021/11/27 11:03:31;;;;;;;11.35;4.95;;;7.10;75.00;;;;;;5111017;28;20191;-82
2021/11/27 11:06:01;;;;;;;10.10;4.88;;;7.10;75.40;;;;;;5084295;28;20175;-82
2021/11/27 11:08:38;;;;;;;11.77;6.18;;;7.20;75.30;;;;;;5098723;28;20511;-82
2021/11/27 11:11:25;;;;;;;16.27;6.05;;;7.30;75.70;;;;;;5085240;28;20179;-82
2021/11/27 11:13:56;;;;;;;14.18;5.30;;;7.10;75.30;;;;;;5102774;28;20192;-82
2021/11/27 11:16:33;;;;;;;13.57;4.78;;;7.10;75.40;;;;;;5085370;28;20188;-82
2021/11/27 11:19:12;;;;;;;4.65;2.70;;;7.10;75.30;;;;;;5085443;28;20172;-82
2021/11/27 11:21:38;;;;;;;6.85;3.42;;;7.00;74.70;;;;;;5108667;28;20639;-82
2021/11/27 11:24:23;;;;;;;7.47;4.35;;;7.10;74.90;;;;;;5080675;28;20261;-83
2021/11/27 11:26:57;;;;;;;10.57;4.78;;;7.30;75.60;;;;;;5081261;28;20179;-82
2021/11/27 11:30:01;;;;;;;7.95;3.80;;;7.30;75.50;;;;;;5088654;28;20174;-83
2021/11/27 11:32:28;;;;;;;7.53;4.10;;;7.30;75.20;;;;;;5083190;28;20712;-83
2021/11/27 11:34:57;;;;;;;15.30;3.25;;;7.20;74.80;;;;;;5091289;28;20202;-84
2021/11/27 11:37:24;;;;;;;14.35;3.50;;;7.40;76.00;;;;;;5053926;28;20183;-84
2021/11/27 11:39:51;;;;;;;7.47;3.47;;;7.70;76.60;;;;;;5076700;28;20212;-84
2021/11/27 11:42:17;;;;;;;14.48;3.92;;;8.00;76.00;;;;;;5104320;28;20212;-84
2021/11/27 11:44:46;;;;;;;8.13;3.50;;;8.10;74.60;;;;;;5089695;28;20223;-83
2021/11/27 11:47:12;;;;;;;12.35;4.53;;;8.30;73.30;;;;;;5113097;28;20180;-84
2021/11/27 11:49:40;;;;;;;10.20;4.45;;;8.30;72.90;;;;;;5098188;28;20196;-83
2021/11/27 11:52:24;;;;;;;14.23;5.57;;;8.40;72.50;;;;;;5101353;28;20207;-84
2021/11/27 11:54:57;;;;;;;9.05;4.60;;;8.60;70.80;;;;;;5087060;28;20599;-87
2021/11/27 11:57:39;;;;;;;8.15;4.95;;;8.50;70.00;;;;;;5085074;28;20192;-83
2021/11/27 12:00:24;;;;;;;16.73;3.92;;;8.50;69.70;;;;;;5083046;28;20635;-86
2021/11/27 12:02:50;;;;;;;4.60;3.45;;;8.40;69.70;;;;;;5079193;28;20246;-82
2021/11/27 12:05:19;;;;;;;12.57;4.32;;;8.30;69.70;;;;;;5084632;28;20308;-84
2021/11/27 12:07:53;;;;;;;7.82;3.83;;;8.00;69.90;;;;;;5104767;28;20179;-89
2021/11/27 12:10:23;;;;;;;9.85;3.72;;;7.70;70.50;;;;;;5085273;28;20254;-83
2021/11/27 12:13:07;;;;;;;11.48;3.42;;;7.70;71.20;;;;;;5085470;28;20251;-88
2021/11/27 12:15:45;;;;;;;14.02;3.85;;;8.10;71.30;;;;;;5099114;28;20217;-85
2021/11/27 12:18:18;;;;;;;7.03;5.25;;;7.80;70.60;;;;;;5076038;28;20249;-85
2021/11/27 12:20:48;;;;;;;10.50;4.43;;;7.40;70.90;;;;;;5099881;28;20176;-85
2021/11/27 12:23:28;;;;;;;7.03;3.95;;;7.70;71.70;;;;;;5082705;28;20294;-86
2021/11/27 12:26:06;;;;;;;5.60;4.20;;;7.80;72.10;;;;;;5098677;28;20167;-86
2021/11/27 12:28:34;;;;;;;7.28;3.92;;;7.90;71.50;;;;;;5096058;28;20674;-87
2021/11/27 12:31:05;;;;;;;16.58;4.93;;;7.90;71.40;;;;;;5097948;28;20183;-86
2021/11/27 12:33:50;;;;;;;9.73;4.65;;;8.00;71.40;;;;;;5098910;28;20209;-86
2021/11/27 12:36:25;;;;;;;6.85;3.30;;;7.70;71.10;;;;;;5099615;28;20245;-87
2021/11/27 12:39:10;;;;;;;7.38;3.60;;;7.80;71.50;;;;;;5107691;28;20187;-86
2021/11/27 12:41:40;;;;;;;6.22;3.80;;;7.70;71.60;;;;;;5115010;28;20194;-86
2021/11/27 12:44:16;;;;;;;7.03;4.32;;;7.60;71.90;;;;;;5088596;28;20287;-86
2021/11/27 12:46:54;;;;;;;11.68;5.80;;;7.80;72.30;;;;;;5083568;28;20205;-86
2021/11/27 12:49:34;;;;;;;8.32;4.72;;;7.80;72.30;;;;;;5100505;28;20268;-85
2021/11/27 12:52:21;;;;;;;9.13;4.13;;;7.70;71.90;;;;;;5101402;28;20195;-85
2021/11/27 12:55:18;;;;;;;10.25;3.83;;;7.50;71.80;;;;;;5081449;28;20196;-87